sensor_id;sensor_type;location;lat;lon;timestamp;pressure;altitude;pressure_sealevel;temperature;humidity
19783;BME280;10051;40.294;-3.754;2023-03-22T00:01:11;94169.66;;;16.19;38.56
19783;BME280;10051;40.294;-3.754;2023-03-22T00:03:37;94121.63;;;15.94;38.78
19783;BME280;10051;40.294;-3.754;2023-03-22T00:06:03;94171.09;;;16.08;38.92
19783;BME280;10051;40.294;-3.754;2023-03-22T00:08:29;94154.53;;;16.02;38.84
19783;BME280;10051;40.294;-3.754;2023-03-22T00:10:54;94169.69;;;16.01;38.94
19783;BME280;10051;40.294;-3.754;2023-03-22T00:13:20;94074.38;;;15.43;39.11
19783;BME280;10051;40.294;-3.754;2023-03-22T00:15:45;94115.53;;;15.67;38.89
19783;BME280;10051;40.294;-3.754;2023-03-22T00:18:14;94181.84;;;16.02;38.89
19783;BME280;10051;40.294;-3.754;2023-03-22T00:20:51;94159.47;;;15.68;39.26
19783;BME280;10051;40.294;-3.754;2023-03-22T00:23:17;94188.81;;;15.63;39.37
19783;BME280;10051;40.294;-3.754;2023-03-22T00:25:44;94150.06;;;15.27;39.77
19783;BME280;10051;40.294;-3.754;2023-03-22T00:28:10;94159.28;;;15.47;39.75
19783;BME280;10051;40.294;-3.754;2023-03-22T00:30:35;94136.66;;;15.14;40.00
19783;BME280;10051;40.294;-3.754;2023-03-22T00:33:01;94137.88;;;15.17;39.88
19783;BME280;10051;40.294;-3.754;2023-03-22T00:35:27;94074.25;;;14.73;40.48
19783;BME280;10051;40.294;-3.754;2023-03-22T00:37:52;94164.91;;;15.37;40.63
19783;BME280;10051;40.294;-3.754;2023-03-22T00:40:18;94140.72;;;15.21;40.96
19783;BME280;10051;40.294;-3.754;2023-03-22T00:42:43;94124.34;;;15.19;40.68
19783;BME280;10051;40.294;-3.754;2023-03-22T00:45:11;94139.78;;;15.25;40.60
19783;BME280;10051;40.294;-3.754;2023-03-22T00:47:36;94153.63;;;15.22;41.14
19783;BME280;10051;40.294;-3.754;2023-03-22T00:50:03;94099.84;;;14.95;41.47
19783;BME280;10051;40.294;-3.754;2023-03-22T00:52:30;94145.13;;;15.43;40.96
19783;BME280;10051;40.294;-3.754;2023-03-22T00:54:55;94114.53;;;15.28;41.11
19783;BME280;10051;40.294;-3.754;2023-03-22T00:57:21;94143.84;;;15.40;40.93
19783;BME280;10051;40.294;-3.754;2023-03-22T00:59:47;94137.63;;;15.36;41.08
19783;BME280;10051;40.294;-3.754;2023-03-22T01:02:13;94143.50;;;15.15;41.32
19783;BME280;10051;40.294;-3.754;2023-03-22T01:04:40;94088.06;;;14.70;41.64
19783;BME280;10051;40.294;-3.754;2023-03-22T01:07:15;94138.31;;;15.01;42.14
19783;BME280;10051;40.294;-3.754;2023-03-22T01:09:47;94140.19;;;15.10;42.05
19783;BME280;10051;40.294;-3.754;2023-03-22T01:12:13;94082.03;;;14.78;42.37
19783;BME280;10051;40.294;-3.754;2023-03-22T01:14:39;94120.56;;;15.02;42.69
19783;BME280;10051;40.294;-3.754;2023-03-22T01:17:04;94064.75;;;14.49;43.37
19783;BME280;10051;40.294;-3.754;2023-03-22T01:19:32;94083.16;;;14.54;43.11
19783;BME280;10051;40.294;-3.754;2023-03-22T01:21:57;94074.53;;;14.80;42.65
19783;BME280;10051;40.294;-3.754;2023-03-22T01:24:23;94072.56;;;14.86;42.59
19783;BME280;10051;40.294;-3.754;2023-03-22T01:26:49;94065.69;;;14.76;42.45
19783;BME280;10051;40.294;-3.754;2023-03-22T01:29:15;94045.78;;;14.16;43.78
19783;BME280;10051;40.294;-3.754;2023-03-22T01:31:41;94127.53;;;14.57;44.33
19783;BME280;10051;40.294;-3.754;2023-03-22T01:34:07;94110.75;;;14.31;44.32
19783;BME280;10051;40.294;-3.754;2023-03-22T01:36:32;94095.38;;;14.10;45.00
19783;BME280;10051;40.294;-3.754;2023-03-22T01:38:58;94042.59;;;13.96;44.52
19783;BME280;10051;40.294;-3.754;2023-03-22T01:41:24;94055.00;;;14.18;44.68
19783;BME280;10051;40.294;-3.754;2023-03-22T01:46:35;94094.09;;;14.62;43.96
19783;BME280;10051;40.294;-3.754;2023-03-22T01:49:01;93983.91;;;13.85;44.37
19783;BME280;10051;40.294;-3.754;2023-03-22T01:51:29;94039.72;;;14.15;45.06
19783;BME280;10051;40.294;-3.754;2023-03-22T01:54:06;94055.22;;;14.31;44.29
19783;BME280;10051;40.294;-3.754;2023-03-22T01:56:36;93969.44;;;13.82;44.97
19783;BME280;10051;40.294;-3.754;2023-03-22T01:59:02;94084.88;;;14.59;44.33
19783;BME280;10051;40.294;-3.754;2023-03-22T02:01:29;94078.06;;;14.26;45.37
19783;BME280;10051;40.294;-3.754;2023-03-22T02:04:01;94080.28;;;14.42;45.17
19783;BME280;10051;40.294;-3.754;2023-03-22T02:06:31;94040.91;;;14.32;44.62
19783;BME280;10051;40.294;-3.754;2023-03-22T02:08:57;94081.63;;;14.62;44.67
19783;BME280;10051;40.294;-3.754;2023-03-22T02:11:51;94082.28;;;14.68;44.54
19783;BME280;10051;40.294;-3.754;2023-03-22T02:14:33;94082.03;;;14.78;44.55
19783;BME280;10051;40.294;-3.754;2023-03-22T02:29:25;94072.78;;;14.26;44.99
19783;BME280;10051;40.294;-3.754;2023-03-22T02:38:05;94072.06;;;14.43;44.42
19783;BME280;10051;40.294;-3.754;2023-03-22T02:40:49;94075.53;;;14.53;44.42
19783;BME280;10051;40.294;-3.754;2023-03-22T02:43:35;94075.53;;;14.53;44.70
19783;BME280;10051;40.294;-3.754;2023-03-22T02:48:46;94079.25;;;14.52;44.90
19783;BME280;10051;40.294;-3.754;2023-03-22T02:51:21;94083.94;;;14.55;44.38
19783;BME280;10051;40.294;-3.754;2023-03-22T02:54:01;94085.19;;;14.26;45.17
19783;BME280;10051;40.294;-3.754;2023-03-22T02:56:35;94088.41;;;14.14;45.50
19783;BME280;10051;40.294;-3.754;2023-03-22T02:59:08;94090.31;;;14.22;45.26
19783;BME280;10051;40.294;-3.754;2023-03-22T03:01:42;94021.25;;;13.92;45.24
19783;BME280;10051;40.294;-3.754;2023-03-22T03:04:18;94082.25;;;14.27;44.91
19783;BME280;10051;40.294;-3.754;2023-03-22T03:06:47;94064.59;;;14.14;45.27
19783;BME280;10051;40.294;-3.754;2023-03-22T03:09:18;94056.63;;;14.05;44.86
19783;BME280;10051;40.294;-3.754;2023-03-22T03:11:49;94056.34;;;14.16;44.91
19783;BME280;10051;40.294;-3.754;2023-03-22T03:14:33;94055.84;;;14.05;45.11
19783;BME280;10051;40.294;-3.754;2023-03-22T03:20:16;94066.88;;;14.30;45.37
19783;BME280;10051;40.294;-3.754;2023-03-22T03:37:14;94011.34;;;13.75;46.29
19783;BME280;10051;40.294;-3.754;2023-03-22T03:39:47;94065.28;;;13.97;46.39
19783;BME280;10051;40.294;-3.754;2023-03-22T03:42:15;94013.00;;;13.26;47.68
19783;BME280;10051;40.294;-3.754;2023-03-22T03:44:42;94011.25;;;12.84;48.84
19783;BME280;10051;40.294;-3.754;2023-03-22T03:47:09;94015.97;;;12.73;49.51
19783;BME280;10051;40.294;-3.754;2023-03-22T03:49:36;94060.94;;;13.19;49.40
19783;BME280;10051;40.294;-3.754;2023-03-22T03:52:02;93990.03;;;12.89;49.04
19783;BME280;10051;40.294;-3.754;2023-03-22T03:54:29;94012.22;;;13.02;48.55
19783;BME280;10051;40.294;-3.754;2023-03-22T03:56:55;94055.75;;;13.14;49.18
19783;BME280;10051;40.294;-3.754;2023-03-22T03:59:20;94025.13;;;12.90;49.63
19783;BME280;10051;40.294;-3.754;2023-03-22T04:01:46;94011.66;;;12.77;49.47
19783;BME280;10051;40.294;-3.754;2023-03-22T04:04:18;93992.72;;;12.61;49.43
19783;BME280;10051;40.294;-3.754;2023-03-22T04:06:54;93925.59;;;12.03;50.16
19783;BME280;10051;40.294;-3.754;2023-03-22T04:09:29;94028.09;;;12.46;50.77
19783;BME280;10051;40.294;-3.754;2023-03-22T04:11:55;94061.31;;;12.47;51.76
19783;BME280;10051;40.294;-3.754;2023-03-22T04:14:22;94013.94;;;12.28;51.38
19783;BME280;10051;40.294;-3.754;2023-03-22T04:16:48;93972.00;;;11.85;51.72
19783;BME280;10051;40.294;-3.754;2023-03-22T04:19:13;94005.81;;;12.11;51.10
19783;BME280;10051;40.294;-3.754;2023-03-22T04:21:39;94005.94;;;11.86;51.66
19783;BME280;10051;40.294;-3.754;2023-03-22T04:24:05;93848.97;;;10.77;52.12
19783;BME280;10051;40.294;-3.754;2023-03-22T04:26:31;94052.13;;;11.98;52.93
19783;BME280;10051;40.294;-3.754;2023-03-22T04:28:57;93992.31;;;11.65;52.52
19783;BME280;10051;40.294;-3.754;2023-03-22T04:31:24;94003.63;;;11.99;51.55
19783;BME280;10051;40.294;-3.754;2023-03-22T04:33:49;93958.50;;;11.86;51.14
19783;BME280;10051;40.294;-3.754;2023-03-22T04:36:23;94057.19;;;12.27;52.18
19783;BME280;10051;40.294;-3.754;2023-03-22T04:38:50;93935.75;;;11.29;52.25
19783;BME280;10051;40.294;-3.754;2023-03-22T04:41:16;94014.31;;;11.74;52.74
19783;BME280;10051;40.294;-3.754;2023-03-22T04:43:42;94066.38;;;11.97;52.82
19783;BME280;10051;40.294;-3.754;2023-03-22T04:46:12;94065.19;;;11.89;53.55
19783;BME280;10051;40.294;-3.754;2023-03-22T04:48:40;94072.44;;;11.78;54.00
19783;BME280;10051;40.294;-3.754;2023-03-22T04:51:07;94042.47;;;11.41;54.55
19783;BME280;10051;40.294;-3.754;2023-03-22T04:53:33;93999.69;;;11.49;53.72
19783;BME280;10051;40.294;-3.754;2023-03-22T04:56:08;94050.13;;;12.09;52.63
19783;BME280;10051;40.294;-3.754;2023-03-22T04:58:35;94072.44;;;12.44;51.78
19783;BME280;10051;40.294;-3.754;2023-03-22T05:01:03;94049.38;;;12.36;51.79
19783;BME280;10051;40.294;-3.754;2023-03-22T05:03:29;94047.91;;;11.97;52.34
19783;BME280;10051;40.294;-3.754;2023-03-22T05:05:57;94075.72;;;12.08;52.88
19783;BME280;10051;40.294;-3.754;2023-03-22T05:08:24;94016.69;;;11.90;52.44
19783;BME280;10051;40.294;-3.754;2023-03-22T05:10:54;94040.38;;;12.23;51.90
19783;BME280;10051;40.294;-3.754;2023-03-22T05:13:21;94066.38;;;11.97;53.05
19783;BME280;10051;40.294;-3.754;2023-03-22T05:15:48;94083.81;;;11.93;53.42
19783;BME280;10051;40.294;-3.754;2023-03-22T05:18:15;93952.72;;;11.04;53.58
19783;BME280;10051;40.294;-3.754;2023-03-22T05:20:42;94033.50;;;11.75;53.16
19783;BME280;10051;40.294;-3.754;2023-03-22T05:23:08;94078.22;;;11.80;54.34
19783;BME280;10051;40.294;-3.754;2023-03-22T05:25:35;94034.22;;;11.48;54.17
19783;BME280;10051;40.294;-3.754;2023-03-22T05:28:02;94064.88;;;11.57;54.08
19783;BME280;10051;40.294;-3.754;2023-03-22T05:30:28;94007.13;;;11.09;54.77
19783;BME280;10051;40.294;-3.754;2023-03-22T05:33:03;94067.94;;;11.26;54.84
19783;BME280;10051;40.294;-3.754;2023-03-22T05:35:30;94069.94;;;11.15;55.32
19783;BME280;10051;40.294;-3.754;2023-03-22T05:37:56;94070.56;;;11.07;55.47
19783;BME280;10051;40.294;-3.754;2023-03-22T05:40:23;93992.53;;;10.35;55.98
19783;BME280;10051;40.294;-3.754;2023-03-22T05:42:49;94039.84;;;10.59;56.24
19783;BME280;10051;40.294;-3.754;2023-03-22T05:45:15;94089.34;;;11.00;55.76
19783;BME280;10051;40.294;-3.754;2023-03-22T05:47:41;94030.31;;;10.88;55.08
19783;BME280;10051;40.294;-3.754;2023-03-22T05:50:12;94093.97;;;11.47;54.23
19783;BME280;10051;40.294;-3.754;2023-03-22T05:52:39;94095.34;;;11.44;54.36
19783;BME280;10051;40.294;-3.754;2023-03-22T05:55:07;94089.78;;;11.46;54.12
19783;BME280;10051;40.294;-3.754;2023-03-22T05:57:33;94104.81;;;11.45;53.77
19783;BME280;10051;40.294;-3.754;2023-03-22T05:59:59;94081.31;;;11.11;54.62
19783;BME280;10051;40.294;-3.754;2023-03-22T06:02:26;94094.84;;;11.23;54.76
19783;BME280;10051;40.294;-3.754;2023-03-22T06:04:52;94058.91;;;11.13;53.64
19783;BME280;10051;40.294;-3.754;2023-03-22T06:07:18;94086.06;;;11.09;54.17
19783;BME280;10051;40.294;-3.754;2023-03-22T06:09:44;94112.53;;;11.18;54.73
19783;BME280;10051;40.294;-3.754;2023-03-22T06:12:11;94110.31;;;11.06;54.76
19783;BME280;10051;40.294;-3.754;2023-03-22T06:14:36;94122.94;;;10.84;55.47
19783;BME280;10051;40.294;-3.754;2023-03-22T06:17:02;94078.22;;;10.60;55.34
19783;BME280;10051;40.294;-3.754;2023-03-22T06:19:28;94045.75;;;10.21;56.16
19783;BME280;10051;40.294;-3.754;2023-03-22T06:21:54;94012.00;;;10.04;55.99
19783;BME280;10051;40.294;-3.754;2023-03-22T06:24:19;94076.66;;;10.59;56.26
19783;BME280;10051;40.294;-3.754;2023-03-22T06:26:45;94085.41;;;10.54;56.23
19783;BME280;10051;40.294;-3.754;2023-03-22T06:29:12;94117.00;;;10.49;57.33
19783;BME280;10051;40.294;-3.754;2023-03-22T06:31:37;94131.31;;;10.33;58.45
19783;BME280;10051;40.294;-3.754;2023-03-22T06:34:03;94103.78;;;10.25;58.58
19783;BME280;10051;40.294;-3.754;2023-03-22T06:36:29;94060.28;;;10.43;57.30
19783;BME280;10051;40.294;-3.754;2023-03-22T06:38:58;94076.19;;;11.39;54.57
19783;BME280;10051;40.294;-3.754;2023-03-22T06:41:25;94126.38;;;11.67;53.79
19783;BME280;10051;40.294;-3.754;2023-03-22T06:43:51;94095.31;;;11.06;54.82
19783;BME280;10051;40.294;-3.754;2023-03-22T06:46:16;94131.81;;;11.13;55.79
19783;BME280;10051;40.294;-3.754;2023-03-22T06:48:42;94033.41;;;10.22;56.39
19783;BME280;10051;40.294;-3.754;2023-03-22T06:51:07;94083.19;;;10.37;57.77
19783;BME280;10051;40.294;-3.754;2023-03-22T06:53:33;94083.19;;;10.37;57.83
19783;BME280;10051;40.294;-3.754;2023-03-22T06:55:59;94124.41;;;10.71;57.63
19783;BME280;10051;40.294;-3.754;2023-03-22T06:58:25;94151.41;;;10.77;57.66
19783;BME280;10051;40.294;-3.754;2023-03-22T07:00:51;94140.69;;;10.74;57.83
19783;BME280;10051;40.294;-3.754;2023-03-22T07:03:16;94117.50;;;10.76;57.55
19783;BME280;10051;40.294;-3.754;2023-03-22T07:05:42;94058.56;;;10.58;56.47
19783;BME280;10051;40.294;-3.754;2023-03-22T07:08:08;94029.94;;;10.51;55.58
19783;BME280;10051;40.294;-3.754;2023-03-22T07:10:33;94103.38;;;11.15;55.83
19783;BME280;10051;40.294;-3.754;2023-03-22T07:13:02;94133.34;;;11.38;54.83
19783;BME280;10051;40.294;-3.754;2023-03-22T07:15:29;94101.75;;;11.19;55.45
19783;BME280;10051;40.294;-3.754;2023-03-22T07:17:55;94083.31;;;11.19;54.78
19783;BME280;10051;40.294;-3.754;2023-03-22T07:20:21;94144.81;;;11.67;54.56
19783;BME280;10051;40.294;-3.754;2023-03-22T07:22:48;94044.53;;;10.86;54.82
19783;BME280;10051;40.294;-3.754;2023-03-22T07:25:13;94105.88;;;11.44;54.07
19783;BME280;10051;40.294;-3.754;2023-03-22T07:27:39;94065.22;;;11.31;54.00
19783;BME280;10051;40.294;-3.754;2023-03-22T07:30:05;94123.16;;;11.70;54.24
19783;BME280;10051;40.294;-3.754;2023-03-22T07:32:31;94121.34;;;11.84;53.64
19783;BME280;10051;40.294;-3.754;2023-03-22T07:34:57;94001.50;;;10.96;54.32
19783;BME280;10051;40.294;-3.754;2023-03-22T07:37:23;94042.69;;;11.44;53.86
19783;BME280;10051;40.294;-3.754;2023-03-22T07:39:49;94164.78;;;12.25;53.25
19783;BME280;10051;40.294;-3.754;2023-03-22T07:42:14;94024.41;;;11.34;52.95
19783;BME280;10051;40.294;-3.754;2023-03-22T07:44:40;94034.06;;;11.39;53.02
19783;BME280;10051;40.294;-3.754;2023-03-22T07:47:06;94077.28;;;11.71;53.13
19783;BME280;10051;40.294;-3.754;2023-03-22T07:49:32;94135.63;;;12.16;52.94
19783;BME280;10051;40.294;-3.754;2023-03-22T07:51:58;94098.34;;;12.09;52.59
19783;BME280;10051;40.294;-3.754;2023-03-22T07:54:23;94001.25;;;11.50;52.25
19783;BME280;10051;40.294;-3.754;2023-03-22T07:56:49;94093.84;;;12.10;52.40
19783;BME280;10051;40.294;-3.754;2023-03-22T07:59:15;94155.25;;;12.43;52.22
19783;BME280;10051;40.294;-3.754;2023-03-22T08:01:42;94151.94;;;12.52;51.85
19783;BME280;10051;40.294;-3.754;2023-03-22T08:04:08;94138.69;;;12.57;51.22
19783;BME280;10051;40.294;-3.754;2023-03-22T08:06:40;94072.38;;;12.16;51.25
19783;BME280;10051;40.294;-3.754;2023-03-22T08:09:07;94031.47;;;12.05;50.95
19783;BME280;10051;40.294;-3.754;2023-03-22T08:11:34;94049.38;;;12.36;50.73
19783;BME280;10051;40.294;-3.754;2023-03-22T08:14:00;94149.13;;;13.18;49.56
19783;BME280;10051;40.294;-3.754;2023-03-22T08:16:25;94141.31;;;13.41;49.26
19783;BME280;10051;40.294;-3.754;2023-03-22T08:18:51;94106.69;;;13.42;48.24
19783;BME280;10051;40.294;-3.754;2023-03-22T08:21:17;94130.94;;;13.81;47.51
19783;BME280;10051;40.294;-3.754;2023-03-22T08:23:42;94108.94;;;13.72;47.42
19783;BME280;10051;40.294;-3.754;2023-03-22T08:26:09;94195.56;;;14.34;47.02
19783;BME280;10051;40.294;-3.754;2023-03-22T08:28:35;94173.13;;;14.09;47.64
19783;BME280;10051;40.294;-3.754;2023-03-22T08:31:08;94153.22;;;13.89;47.56
19783;BME280;10051;40.294;-3.754;2023-03-22T08:33:33;94156.66;;;14.12;46.80
19783;BME280;10051;40.294;-3.754;2023-03-22T08:36:07;94189.94;;;14.58;45.92
19783;BME280;10051;40.294;-3.754;2023-03-22T08:38:34;94201.88;;;14.70;45.18
19783;BME280;10051;40.294;-3.754;2023-03-22T08:40:59;94180.88;;;14.74;45.04
19783;BME280;10051;40.294;-3.754;2023-03-22T08:43:25;94202.91;;;14.92;45.48
19783;BME280;10051;40.294;-3.754;2023-03-22T08:45:50;94106.41;;;14.35;44.08
19783;BME280;10051;40.294;-3.754;2023-03-22T08:48:16;94207.81;;;15.07;44.72
19783;BME280;10051;40.294;-3.754;2023-03-22T08:50:41;94169.41;;;14.87;44.34
19783;BME280;10051;40.294;-3.754;2023-03-22T08:53:07;94173.72;;;15.14;44.10
19783;BME280;10051;40.294;-3.754;2023-03-22T08:55:32;94183.25;;;15.33;43.65
19783;BME280;10051;40.294;-3.754;2023-03-22T08:58:02;94169.88;;;15.38;43.14
19783;BME280;10051;40.294;-3.754;2023-03-22T09:00:27;94209.00;;;15.41;44.13
19783;BME280;10051;40.294;-3.754;2023-03-22T09:02:53;94151.88;;;15.09;44.22
19783;BME280;10051;40.294;-3.754;2023-03-22T09:05:18;94162.88;;;15.34;44.09
19783;BME280;10051;40.294;-3.754;2023-03-22T09:07:44;94102.38;;;15.09;43.71
19783;BME280;10051;40.294;-3.754;2023-03-22T09:10:12;94211.03;;;16.02;43.56
19783;BME280;10051;40.294;-3.754;2023-03-22T09:12:37;94208.06;;;16.22;42.87
19783;BME280;10051;40.294;-3.754;2023-03-22T09:15:04;94213.50;;;16.43;42.58
19783;BME280;10051;40.294;-3.754;2023-03-22T09:17:31;94198.50;;;16.47;42.83
19783;BME280;10051;40.294;-3.754;2023-03-22T09:19:57;94142.06;;;16.02;42.38
19783;BME280;10051;40.294;-3.754;2023-03-22T09:22:22;94213.75;;;16.68;41.95
19783;BME280;10051;40.294;-3.754;2023-03-22T09:24:49;94191.91;;;16.71;40.60
19783;BME280;10051;40.294;-3.754;2023-03-22T09:27:14;94101.97;;;16.04;40.67
19783;BME280;10051;40.294;-3.754;2023-03-22T09:29:40;94174.16;;;16.45;41.02
19783;BME280;10051;40.294;-3.754;2023-03-22T09:32:06;94212.50;;;16.74;41.16
19783;BME280;10051;40.294;-3.754;2023-03-22T09:34:32;94102.09;;;16.16;40.76
19783;BME280;10051;40.294;-3.754;2023-03-22T09:36:57;94222.63;;;16.98;41.08
19783;BME280;10051;40.294;-3.754;2023-03-22T09:39:27;94208.38;;;16.94;41.59
19783;BME280;10051;40.294;-3.754;2023-03-22T09:44:51;94194.50;;;16.97;41.73
19783;BME280;10051;40.294;-3.754;2023-03-22T09:47:24;94218.44;;;17.36;41.60
19783;BME280;10051;40.294;-3.754;2023-03-22T09:50:01;94178.53;;;17.06;41.36
19783;BME280;10051;40.294;-3.754;2023-03-22T09:52:28;94229.25;;;17.61;41.20
19783;BME280;10051;40.294;-3.754;2023-03-22T09:54:55;94202.94;;;17.38;41.47
19783;BME280;10051;40.294;-3.754;2023-03-22T10:02:46;94225.31;;;17.88;41.80
19783;BME280;10051;40.294;-3.754;2023-03-22T10:05:19;94229.50;;;18.19;41.37
19783;BME280;10051;40.294;-3.754;2023-03-22T10:10:47;94163.53;;;18.12;40.11
19783;BME280;10051;40.294;-3.754;2023-03-22T10:13:34;94215.00;;;18.71;39.89
19783;BME280;10051;40.294;-3.754;2023-03-22T10:16:02;94189.47;;;18.70;39.80
19783;BME280;10051;40.294;-3.754;2023-03-22T10:18:42;94176.03;;;18.79;39.46
19783;BME280;10051;40.294;-3.754;2023-03-22T10:21:12;94166.75;;;18.85;39.14
19783;BME280;10051;40.294;-3.754;2023-03-22T10:24:03;94216.22;;;19.32;38.69
19783;BME280;10051;40.294;-3.754;2023-03-22T10:26:37;94187.13;;;19.15;38.34
19783;BME280;10051;40.294;-3.754;2023-03-22T10:29:38;94209.78;;;19.34;39.28
19783;BME280;10051;40.294;-3.754;2023-03-22T10:32:15;94212.66;;;19.53;39.47
19783;BME280;10051;40.294;-3.754;2023-03-22T10:34:42;94181.78;;;19.40;39.35
19783;BME280;10051;40.294;-3.754;2023-03-22T10:37:13;94208.88;;;19.67;38.83
19783;BME280;10051;40.294;-3.754;2023-03-22T10:39:43;94179.13;;;19.40;38.41
19783;BME280;10051;40.294;-3.754;2023-03-22T10:42:13;94206.31;;;19.58;38.98
19783;BME280;10051;40.294;-3.754;2023-03-22T10:44:49;94189.78;;;19.52;38.97
19783;BME280;10051;40.294;-3.754;2023-03-22T10:47:26;94193.31;;;19.69;39.37
19783;BME280;10051;40.294;-3.754;2023-03-22T10:49:55;94154.00;;;19.53;38.81
19783;BME280;10051;40.294;-3.754;2023-03-22T10:54:56;94166.63;;;19.94;38.86
19783;BME280;10051;40.294;-3.754;2023-03-22T10:57:23;94179.00;;;20.14;39.12
19783;BME280;10051;40.294;-3.754;2023-03-22T10:59:51;94163.31;;;20.25;38.68
19783;BME280;10051;40.294;-3.754;2023-03-22T11:02:28;94183.22;;;20.44;38.65
19783;BME280;10051;40.294;-3.754;2023-03-22T11:04:59;94124.84;;;20.14;37.75
19783;BME280;10051;40.294;-3.754;2023-03-22T11:07:35;94132.03;;;20.26;38.52
19783;BME280;10051;40.294;-3.754;2023-03-22T11:12:34;94148.09;;;20.58;38.04
19783;BME280;10051;40.294;-3.754;2023-03-22T11:15:01;94146.50;;;20.69;38.35
19783;BME280;10051;40.294;-3.754;2023-03-22T11:17:27;94179.72;;;21.00;38.20
19783;BME280;10051;40.294;-3.754;2023-03-22T11:20:00;94189.66;;;21.16;38.36
19783;BME280;10051;40.294;-3.754;2023-03-22T11:22:37;94156.63;;;21.08;36.83
19783;BME280;10051;40.294;-3.754;2023-03-22T11:25:25;94159.28;;;21.24;36.65
19783;BME280;10051;40.294;-3.754;2023-03-22T11:28:05;94158.88;;;21.22;37.00
19783;BME280;10051;40.294;-3.754;2023-03-22T11:30:33;94085.78;;;20.82;37.46
19783;BME280;10051;40.294;-3.754;2023-03-22T11:33:20;94175.03;;;21.61;36.09
19783;BME280;10051;40.294;-3.754;2023-03-22T11:35:52;94148.38;;;21.49;36.27
19783;BME280;10051;40.294;-3.754;2023-03-22T11:38:36;94162.19;;;21.67;35.94
19783;BME280;10051;40.294;-3.754;2023-03-22T11:41:27;94158.47;;;21.72;36.09
19783;BME280;10051;40.294;-3.754;2023-03-22T11:44:03;94092.78;;;21.38;35.22
19783;BME280;10051;40.294;-3.754;2023-03-22T11:46:29;94170.03;;;21.95;35.48
19783;BME280;10051;40.294;-3.754;2023-03-22T11:48:58;94136.09;;;21.80;35.22
19783;BME280;10051;40.294;-3.754;2023-03-22T11:51:30;94147.22;;;22.02;35.72
19783;BME280;10051;40.294;-3.754;2023-03-22T11:54:30;94145.06;;;22.07;34.94
19783;BME280;10051;40.294;-3.754;2023-03-22T11:57:02;94125.81;;;22.02;34.76
19783;BME280;10051;40.294;-3.754;2023-03-22T11:59:47;94160.75;;;22.28;32.96
19783;BME280;10051;40.294;-3.754;2023-03-22T12:02:28;94123.84;;;21.98;33.85
19783;BME280;10051;40.294;-3.754;2023-03-22T12:04:59;94134.59;;;22.22;33.26
19783;BME280;10051;40.294;-3.754;2023-03-22T12:07:30;94123.13;;;22.21;32.75
19783;BME280;10051;40.294;-3.754;2023-03-22T12:10:37;94159.84;;;22.40;32.83
19783;BME280;10051;40.294;-3.754;2023-03-22T12:13:02;94157.44;;;22.55;32.57
19783;BME280;10051;40.294;-3.754;2023-03-22T12:15:33;94153.69;;;22.60;31.53
19783;BME280;10051;40.294;-3.754;2023-03-22T12:20:56;94143.22;;;22.74;30.99
19783;BME280;10051;40.294;-3.754;2023-03-22T12:23:25;94138.59;;;22.71;30.47
19783;BME280;10051;40.294;-3.754;2023-03-22T12:29:14;94140.97;;;22.76;32.59
19783;BME280;10051;40.294;-3.754;2023-03-22T12:31:55;94143.97;;;22.71;31.41
19783;BME280;10051;40.294;-3.754;2023-03-22T12:34:33;94135.25;;;22.78;31.56
19783;BME280;10051;40.294;-3.754;2023-03-22T12:37:01;94127.22;;;22.78;31.50
19783;BME280;10051;40.294;-3.754;2023-03-22T12:39:34;94134.84;;;22.76;31.66
19783;BME280;10051;40.294;-3.754;2023-03-22T12:42:29;94064.53;;;22.39;30.83
19783;BME280;10051;40.294;-3.754;2023-03-22T12:45:02;94076.59;;;22.49;31.32
19783;BME280;10051;40.294;-3.754;2023-03-22T12:47:29;94124.41;;;22.94;31.48
19783;BME280;10051;40.294;-3.754;2023-03-22T12:50:11;94041.88;;;22.56;31.10
19783;BME280;10051;40.294;-3.754;2023-03-22T12:52:45;94090.22;;;22.87;31.21
19783;BME280;10051;40.294;-3.754;2023-03-22T12:55:22;94122.72;;;23.09;30.69
19783;BME280;10051;40.294;-3.754;2023-03-22T12:57:50;94043.59;;;22.68;29.67
19783;BME280;10051;40.294;-3.754;2023-03-22T13:02:57;94059.09;;;22.79;30.71
19783;BME280;10051;40.294;-3.754;2023-03-22T13:05:31;94077.34;;;22.96;30.47
19783;BME280;10051;40.294;-3.754;2023-03-22T13:07:58;94105.34;;;23.22;30.42
19783;BME280;10051;40.294;-3.754;2023-03-22T13:23:56;94097.59;;;23.44;28.23
19783;BME280;10051;40.294;-3.754;2023-03-22T13:28:58;94049.06;;;23.26;28.58
19783;BME280;10051;40.294;-3.754;2023-03-22T13:34:28;94080.53;;;23.29;27.52
19783;BME280;10051;40.294;-3.754;2023-03-22T13:36:56;94050.09;;;23.17;27.63
19783;BME280;10051;40.294;-3.754;2023-03-22T13:39:23;94077.72;;;23.49;27.83
19783;BME280;10051;40.294;-3.754;2023-03-22T13:42:34;94050.72;;;23.34;28.23
19783;BME280;10051;40.294;-3.754;2023-03-22T13:44:56;94094.00;;;23.63;27.29
19783;BME280;10051;40.294;-3.754;2023-03-22T13:47:31;94045.47;;;23.45;26.42
19783;BME280;10051;40.294;-3.754;2023-03-22T13:50:26;94070.25;;;23.65;26.31
19783;BME280;10051;40.294;-3.754;2023-03-22T13:53:18;94060.72;;;23.68;27.11
19783;BME280;10051;40.294;-3.754;2023-03-22T13:58:36;94068.06;;;23.71;25.54
19783;BME280;10051;40.294;-3.754;2023-03-22T14:04:22;94051.72;;;23.53;25.74
19783;BME280;10051;40.294;-3.754;2023-03-22T14:09:30;94023.16;;;23.37;26.33
19783;BME280;10051;40.294;-3.754;2023-03-22T14:12:06;94027.06;;;23.43;24.80
19783;BME280;10051;40.294;-3.754;2023-03-22T14:14:46;94050.22;;;23.55;25.11
19783;BME280;10051;40.294;-3.754;2023-03-22T14:17:38;94040.75;;;23.65;24.40
19783;BME280;10051;40.294;-3.754;2023-03-22T14:20:11;94011.72;;;23.40;24.49
19783;BME280;10051;40.294;-3.754;2023-03-22T14:22:44;94032.69;;;23.65;24.94
19783;BME280;10051;40.294;-3.754;2023-03-22T14:25:17;94037.22;;;23.57;25.43
19783;BME280;10051;40.294;-3.754;2023-03-22T14:27:44;94038.75;;;23.58;25.65
19783;BME280;10051;40.294;-3.754;2023-03-22T14:32:54;93997.13;;;23.38;23.91
19783;BME280;10051;40.294;-3.754;2023-03-22T14:35:33;94012.63;;;23.52;23.52
19783;BME280;10051;40.294;-3.754;2023-03-22T14:38:05;94028.66;;;23.48;24.16
19783;BME280;10051;40.294;-3.754;2023-03-22T14:40:35;94023.28;;;23.48;24.22